This is the latest recevied weather packets stored in our database for station/object OE-11213. If no packets are shown the sender has not sent any weather packets the latest 10 day(s).
| Time | Temp. | Humidity | Pressure | Rain* | Wind** | Luminosity | Snow |
|---|---|---|---|---|---|---|---|
| 1787959529 | 21.67° C | 79% | 1012.2 hPa | 0 mm | - | 0 W/m² | - |
| 1787958930 | 20.56° C | 82% | 1012.3 hPa | 0 mm | - | 0 W/m² | - |
| 1787958330 | 20.56° C | 87% | 1012.4 hPa | 0 mm | - | 0 W/m² | - |
| 1787957730 | 21.67° C | 82% | 1012.1 hPa | 0 mm | - | 0 W/m² | - |
| 1787956903 | 21.11° C | 82% | 1012.3 hPa | 0 mm | - | 0 W/m² | - |
| 1787956530 | 21.11° C | 78% | 1012.3 hPa | 0 mm | - | 0 W/m² | - |
| 1787955930 | 21.11° C | 76% | 1012 hPa | 0.51 mm | - | 0 W/m² | - |
| 1787955103 | 21.11° C | 76% | 1011.7 hPa | 0.51 mm | - | 0 W/m² | - |
| 1787954729 | 21.11° C | 79% | 1011.7 hPa | 0.51 mm | - | 0 W/m² | - |
| 1787954130 | 21.67° C | 80% | 1011.5 hPa | 0.51 mm | - | 0 W/m² | - |
| 1787953303 | 22.22° C | 74% | 1010.9 hPa | 0.51 mm | - | 0 W/m² | - |
| 1787952930 | 22.78° C | 70% | 1010.8 hPa | 0.51 mm | - | 0 W/m² | - |
| 1787952330 | 23.89° C | 62% | 1011.1 hPa | 0.51 mm | - | 0 W/m² | - |
| 1787951503 | 24.44° C | 57% | 1012.7 hPa | 0.25 mm | - | 0 W/m² | - |
| 1787951130 | 25° C | 55% | 1012.9 hPa | 0 mm | - | 0 W/m² | - |
| 1787950530 | 27.78° C | 44% | 1012.2 hPa | 0 mm | - | 0 W/m² | - |
| 1787949704 | 30° C | 33% | 1010.9 hPa | 0 mm | - | 0 W/m² | - |
| 1787949330 | 30.56° C | 32% | 1010.1 hPa | 0 mm | - | 0 W/m² | - |
| 1787948730 | 30° C | 33% | 1009.4 hPa | 0 mm | - | 0 W/m² | - |
| 1787947903 | 30.56° C | 32% | 1009.3 hPa | 0 mm | - | 0 W/m² | - |
| 1787947529 | 30.56° C | 30% | 1008.7 hPa | 0 mm | - | 0 W/m² | - |
| 1787946930 | 30.56° C | 30% | 1008.3 hPa | 0 mm | - | 0 W/m² | - |
| 1787946103 | 30.56° C | 32% | 1007.8 hPa | 0 mm | - | 0 W/m² | - |
| 1787945730 | 30.56° C | 32% | 1008.6 hPa | 0 mm | - | 0 W/m² | - |
| 1787945129 | 30° C | 36% | 1008.8 hPa | 0 mm | - | 0 W/m² | - |
* Rain latest hour (hover to see other rain measurements)
** Current wind speed in m/s (hover to see current wind gust speed)